Niagara, Wisconsin
Current Conditions -  °F | °C
As of 5:54 AM on Monday 20 Oct 2014 (Local Time) from KIMT Reporting Station
Overcast Overcast  
Wind Chill:   Ceiling: 3900
Heat Index:   Visibility: 10mi
Dew Point:   Wind: 8mph
Humidity: 89%   Direction: 330°NNW
Pressure: 29.78"   Gusts: NA
Location:  45.77°N, 87.99°W
Report Text: KIMT 201054Z AUTO 33007KT 10SM OVC039 08/06 A2978 RMK AO2 SLP093 T00780061
Loading
Personal Weather Stations






























Interactive Weather Map
Tropical Storm Tracking
New forecast layout! Learn more

10-Day Weather Forecast

Advertisements
Track Severe Weather on mobile